createdAt,value
2023-03-06T00:02:36.475Z,10.3
2023-03-06T00:07:38.691Z,10.3
2023-03-06T00:12:40.854Z,10.3
2023-03-06T00:17:42.952Z,10.3
2023-03-06T00:22:45.135Z,10.2
2023-03-06T00:27:47.296Z,10.2
2023-03-06T00:32:49.476Z,10.2
2023-03-06T00:37:51.758Z,10.1
2023-03-06T00:42:53.933Z,10.1
2023-03-06T00:47:56.035Z,10.1
2023-03-06T00:52:58.304Z,10.1
2023-03-06T00:58:00.471Z,10.1
2023-03-06T01:03:02.659Z,10.1
2023-03-06T01:08:04.908Z,10.1
2023-03-06T01:13:07.086Z,10.1
2023-03-06T01:18:09.295Z,10.1
2023-03-06T01:23:11.446Z,10
2023-03-06T01:28:13.597Z,10.1
2023-03-06T01:33:15.786Z,10
2023-03-06T01:38:17.910Z,10
2023-03-06T01:43:20.138Z,10.1
2023-03-06T01:48:22.310Z,10
2023-03-06T01:53:24.437Z,10
2023-03-06T01:58:26.584Z,10.1
2023-03-06T02:03:28.701Z,10.1
2023-03-06T02:08:30.817Z,10.1
2023-03-06T02:13:33.001Z,10.1
2023-03-06T02:18:35.218Z,10.1
2023-03-06T02:23:37.363Z,10.1
2023-03-06T02:28:39.521Z,10.1
2023-03-06T02:33:41.620Z,10.1
2023-03-06T02:38:43.850Z,10.1
2023-03-06T02:43:46.111Z,10.1
2023-03-06T02:48:48.227Z,10.1
2023-03-06T02:53:50.347Z,10.1
2023-03-06T02:58:52.632Z,10.1
2023-03-06T03:03:54.747Z,10
2023-03-06T03:08:56.869Z,10.1
2023-03-06T03:13:59.139Z,10.1
2023-03-06T03:19:01.275Z,10.1
2023-03-06T03:24:03.416Z,10.2
2023-03-06T03:29:05.713Z,10.2
2023-03-06T03:34:07.835Z,10.2
2023-03-06T03:39:09.960Z,10.2
2023-03-06T03:44:12.202Z,10.1
2023-03-06T03:49:14.308Z,10.1
2023-03-06T03:54:16.442Z,10.1
2023-03-06T03:59:18.732Z,10.1
2023-03-06T04:04:20.826Z,10.1
2023-03-06T04:09:23.041Z,10.1
2023-03-06T04:14:25.213Z,10.1
2023-03-06T04:19:27.450Z,10
2023-03-06T04:24:29.593Z,10
2023-03-06T04:29:31.792Z,10
2023-03-06T04:34:34.079Z,10
2023-03-06T04:39:36.293Z,10
2023-03-06T04:44:38.447Z,10
2023-03-06T04:49:40.665Z,10.1
2023-03-06T04:54:42.827Z,10.1
2023-03-06T04:59:45.102Z,10.1
2023-03-06T05:04:47.253Z,10.1
2023-03-06T05:09:49.362Z,10.1
2023-03-06T05:14:51.645Z,10.1
2023-03-06T05:19:53.764Z,10.1
2023-03-06T05:24:55.886Z,10.1
2023-03-06T05:29:58.154Z,10
2023-03-06T05:35:00.330Z,10
2023-03-06T05:40:02.466Z,10
2023-03-06T05:45:04.721Z,10
2023-03-06T05:50:06.836Z,10
2023-03-06T05:55:08.972Z,10
2023-03-06T06:00:11.197Z,10
2023-03-06T06:05:13.339Z,10
2023-03-06T06:10:15.406Z,10
2023-03-06T06:15:17.655Z,10
2023-03-06T06:20:19.785Z,10
2023-03-06T06:25:21.909Z,9.9
2023-03-06T06:30:24.207Z,9.9
2023-03-06T06:35:26.338Z,9.9
2023-03-06T06:40:28.455Z,9.8
2023-03-06T06:45:30.700Z,9.8
2023-03-06T06:50:32.885Z,9.8
2023-03-06T06:55:35.138Z,9.8
2023-03-06T07:00:37.301Z,9.8
2023-03-06T07:05:39.403Z,9.8
2023-03-06T07:10:41.542Z,9.8
2023-03-06T07:15:45.834Z,9.8
2023-03-06T07:20:47.989Z,9.8
2023-03-06T07:25:50.117Z,9.8
2023-03-06T07:30:52.404Z,9.8
2023-03-06T07:35:54.586Z,9.8
2023-03-06T07:40:56.719Z,9.8
2023-03-06T07:45:58.974Z,9.8
2023-03-06T07:51:01.138Z,9.8
2023-03-06T07:56:03.240Z,9.8
2023-03-06T08:01:05.493Z,9.8
2023-03-06T08:06:07.696Z,9.8
2023-03-06T08:11:09.860Z,9.8
2023-03-06T08:16:12.116Z,9.8
2023-03-06T08:21:14.163Z,9.7
2023-03-06T08:26:16.286Z,9.7
2023-03-06T08:31:18.469Z,9.7
2023-03-06T08:36:20.669Z,9.7
2023-03-06T08:41:22.839Z,9.8
2023-03-06T08:46:25.161Z,9.8
2023-03-06T08:51:27.185Z,9.8
2023-03-06T08:56:29.312Z,9.8
2023-03-06T09:01:31.576Z,9.8
2023-03-06T09:06:33.568Z,9.8
2023-03-06T09:11:35.786Z,9.8
2023-03-06T09:16:38.065Z,9.8
2023-03-06T09:21:40.128Z,9.9
2023-03-06T09:26:47.118Z,9.9
2023-03-06T09:31:44.429Z,9.9
2023-03-06T09:36:56.371Z,9.9
2023-03-06T09:41:48.774Z,9.9
2023-03-06T09:46:50.983Z,9.9
2023-03-06T09:51:53.039Z,9.9
2023-03-06T09:56:55.184Z,9.9
2023-03-06T10:01:57.517Z,9.9
2023-03-06T10:06:59.706Z,9.9
2023-03-06T10:12:01.851Z,9.9
2023-03-06T10:17:04.109Z,9.9
2023-03-06T10:22:06.226Z,9.9
2023-03-06T10:27:08.543Z,9.9
2023-03-06T10:32:10.790Z,9.9
2023-03-06T10:37:12.785Z,9.9
2023-03-06T10:42:14.893Z,9.9
2023-03-06T10:47:17.164Z,9.9
2023-03-06T10:52:19.315Z,9.9
2023-03-06T10:57:21.512Z,9.9
2023-03-06T11:02:23.674Z,10
2023-03-06T11:07:26.109Z,10
2023-03-06T11:12:28.014Z,10
2023-03-06T11:17:30.268Z,10.1
2023-03-06T11:22:32.271Z,10.1
2023-03-06T11:27:34.586Z,10.1
2023-03-06T11:32:36.771Z,10.2
2023-03-06T11:37:38.821Z,10.2
2023-03-06T11:42:41.033Z,10.2
2023-03-06T11:47:43.220Z,10.2
2023-03-06T11:52:45.363Z,10.2
2023-03-06T11:57:47.633Z,10.2
2023-03-06T12:02:49.800Z,10.2
2023-03-06T12:07:51.906Z,10.1
2023-03-06T12:12:54.148Z,10.1
2023-03-06T12:17:56.322Z,10.1
2023-03-06T12:23:14.394Z,10.1
2023-03-06T12:28:00.660Z,10.2
2023-03-06T12:33:02.924Z,10.2
2023-03-06T12:38:05.157Z,10.2
2023-03-06T12:43:07.308Z,10.2
2023-03-06T12:48:09.576Z,10.3
2023-03-06T12:53:11.696Z,10.3
2023-03-06T12:58:13.827Z,10.3
2023-03-06T13:03:16.070Z,10.3
2023-03-06T13:08:18.264Z,10.3
2023-03-06T13:13:20.412Z,10.3
2023-03-06T13:18:22.730Z,10.3
2023-03-06T13:23:24.845Z,10.3
2023-03-06T13:28:26.988Z,10.3
2023-03-06T13:33:29.129Z,10.3
2023-03-06T13:38:31.236Z,10.3
2023-03-06T13:43:33.539Z,10.3
2023-03-06T13:48:45.050Z,10.3
2023-03-06T13:53:37.858Z,10.4
2023-03-06T13:58:39.989Z,10.4
2023-03-06T14:03:42.259Z,10.5
2023-03-06T14:08:44.416Z,10.6
2023-03-06T14:13:47.784Z,10.6
2023-03-06T14:18:48.867Z,10.6
2023-03-06T14:23:50.927Z,10.7
2023-03-06T14:28:53.068Z,10.7
2023-03-06T14:33:55.280Z,10.7
2023-03-06T14:38:57.497Z,10.7
2023-03-06T14:43:59.640Z,10.8
2023-03-06T14:49:01.816Z,10.8
2023-03-06T14:54:03.982Z,10.8
2023-03-06T14:59:06.146Z,10.8
2023-03-06T15:04:08.391Z,10.8
2023-03-06T15:09:10.636Z,10.8
2023-03-06T15:14:12.774Z,10.9
2023-03-06T15:19:15.157Z,10.9
2023-03-06T15:24:17.271Z,10.9
2023-03-06T15:29:19.403Z,10.9
2023-03-06T15:34:21.679Z,10.9
2023-03-06T15:39:23.933Z,10.8
2023-03-06T15:44:26.079Z,10.8
2023-03-06T15:49:28.436Z,10.8
2023-03-06T15:54:32.809Z,10.7
2023-03-06T15:59:32.745Z,10.7
2023-03-06T16:04:35.043Z,10.7
2023-03-06T16:09:37.114Z,10.7
2023-03-06T16:14:39.233Z,10.7
2023-03-06T16:19:41.566Z,10.7
2023-03-06T16:24:43.720Z,10.7
2023-03-06T16:29:45.926Z,10.7
2023-03-06T16:34:48.089Z,10.7
2023-03-06T16:39:50.172Z,10.7
2023-03-06T16:44:52.298Z,10.7
2023-03-06T16:49:54.604Z,10.6
2023-03-06T16:54:56.704Z,10.6
2023-03-06T16:59:58.928Z,10.6
2023-03-06T17:05:01.160Z,10.6
2023-03-06T17:10:03.301Z,10.6
2023-03-06T17:15:05.497Z,10.6
2023-03-06T17:20:07.653Z,10.6
2023-03-06T17:25:09.756Z,10.6
2023-03-06T17:30:11.979Z,10.6
2023-03-06T17:35:14.152Z,10.6
2023-03-06T17:40:16.266Z,10.6
2023-03-06T17:45:18.394Z,10.6
2023-03-06T17:50:20.559Z,10.6
2023-03-06T17:55:22.686Z,10.5
2023-03-06T18:00:24.894Z,10.5
2023-03-06T18:05:27.081Z,10.5
2023-03-06T18:10:29.189Z,10.5
2023-03-06T18:15:31.316Z,10.5
2023-03-06T18:20:33.491Z,10.5
2023-03-06T18:25:35.597Z,10.5
2023-03-06T18:30:37.798Z,10.5
2023-03-06T18:35:40.130Z,10.5
2023-03-06T18:40:42.201Z,10.5
2023-03-06T18:45:44.492Z,10.5
2023-03-06T18:50:46.612Z,10.5
2023-03-06T18:55:48.707Z,10.5
2023-03-06T19:00:51.090Z,10.5
2023-03-06T19:05:53.221Z,10.5
2023-03-06T19:10:55.407Z,10.5
2023-03-06T19:15:57.641Z,10.5
2023-03-06T19:20:59.777Z,10.5
2023-03-06T19:26:01.947Z,10.4
2023-03-06T19:31:04.066Z,10.4
2023-03-06T19:36:06.219Z,10.4
2023-03-06T19:41:08.481Z,10.4
2023-03-06T19:46:10.689Z,10.4
2023-03-06T19:51:12.803Z,10.4
2023-03-06T19:56:15.023Z,10.4
2023-03-06T20:01:17.198Z,10.4
2023-03-06T20:06:19.357Z,10.4
2023-03-06T20:11:21.569Z,10.4
2023-03-06T20:16:23.710Z,10.4
2023-03-06T20:21:25.923Z,10.4
2023-03-06T20:26:28.106Z,10.5
2023-03-06T20:31:30.415Z,10.5
2023-03-06T20:36:32.526Z,10.5
2023-03-06T20:41:34.642Z,10.5
2023-03-06T20:46:36.975Z,10.5
2023-03-06T20:51:39.124Z,10.5
2023-03-06T20:56:41.172Z,10.5
2023-03-06T21:01:43.360Z,10.5
2023-03-06T21:06:45.459Z,10.4
2023-03-06T21:11:47.651Z,10.4
2023-03-06T21:16:50.015Z,10.4
2023-03-06T21:21:52.205Z,10.4
2023-03-06T21:26:54.323Z,10.4
2023-03-06T21:31:56.535Z,10.4
2023-03-06T21:36:58.710Z,10.4
2023-03-06T21:42:00.923Z,10.4
2023-03-06T21:47:03.052Z,10.4
2023-03-06T21:52:05.210Z,10.3
2023-03-06T21:57:07.318Z,10.3
2023-03-06T22:02:09.579Z,10.3
2023-03-06T22:07:11.754Z,10.3
2023-03-06T22:12:13.969Z,10.3
2023-03-06T22:17:16.114Z,10.3
2023-03-06T22:22:18.260Z,10.3
2023-03-06T22:27:20.354Z,10.4
2023-03-06T22:32:22.615Z,10.4
2023-03-06T22:37:24.629Z,10.4
2023-03-06T22:42:26.819Z,10.5
2023-03-06T22:47:28.965Z,10.5
2023-03-06T22:52:31.213Z,10.5
2023-03-06T22:57:33.382Z,10.5
2023-03-06T23:02:35.541Z,10.5
2023-03-06T23:07:37.759Z,10.4
2023-03-06T23:12:39.910Z,10.4
2023-03-06T23:17:42.266Z,10.4
2023-03-06T23:22:44.406Z,10.4
2023-03-06T23:27:46.576Z,10.4
2023-03-06T23:32:48.698Z,10.4
2023-03-06T23:37:50.964Z,10.4
2023-03-06T23:42:53.081Z,10.4
2023-03-06T23:47:55.237Z,10.4
2023-03-06T23:52:57.498Z,10.5
2023-03-06T23:57:59.615Z,10.5
